sensor_id;sensor_type;location;lat;lon;timestamp;pressure;altitude;pressure_sealevel;temperature;humidity
47592;BME280;33317;33.356;-117.184;2022-07-29T00:01:15;98809.03;;;28.19;22.73
47592;BME280;33317;33.356;-117.184;2022-07-29T00:03:43;98813.02;;;28.78;22.63
47592;BME280;33317;33.356;-117.184;2022-07-29T00:06:12;98812.30;;;28.93;23.06
47592;BME280;33317;33.356;-117.184;2022-07-29T00:08:41;98807.56;;;28.47;23.28
47592;BME280;33317;33.356;-117.184;2022-07-29T00:11:10;98811.34;;;28.34;23.49
47592;BME280;33317;33.356;-117.184;2022-07-29T00:13:38;98809.18;;;28.02;23.73
47592;BME280;33317;33.356;-117.184;2022-07-29T00:16:06;98808.40;;;27.61;23.93
47592;BME280;33317;33.356;-117.184;2022-07-29T00:18:35;98808.18;;;26.82;24.67
47592;BME280;33317;33.356;-117.184;2022-07-29T00:21:03;98810.14;;;27.26;24.15
47592;BME280;33317;33.356;-117.184;2022-07-29T00:23:31;98805.98;;;27.92;23.50
47592;BME280;33317;33.356;-117.184;2022-07-29T00:26:00;98810.65;;;27.96;23.33
47592;BME280;33317;33.356;-117.184;2022-07-29T00:28:28;98813.81;;;27.93;23.05
47592;BME280;33317;33.356;-117.184;2022-07-29T00:30:56;98816.75;;;28.05;23.73
47592;BME280;33317;33.356;-117.184;2022-07-29T00:33:25;98812.72;;;28.47;23.05
47592;BME280;33317;33.356;-117.184;2022-07-29T00:35:53;98812.68;;;28.57;22.49
47592;BME280;33317;33.356;-117.184;2022-07-29T00:38:23;98812.57;;;29.14;22.54
47592;BME280;33317;33.356;-117.184;2022-07-29T00:40:51;98812.08;;;28.42;22.87
47592;BME280;33317;33.356;-117.184;2022-07-29T00:43:19;98810.75;;;27.96;23.37
47592;BME280;33317;33.356;-117.184;2022-07-29T00:45:47;98811.57;;;28.24;23.10
47592;BME280;33317;33.356;-117.184;2022-07-29T00:48:16;98814.46;;;28.67;23.27
47592;BME280;33317;33.356;-117.184;2022-07-29T00:50:44;98814.65;;;28.27;22.88
47592;BME280;33317;33.356;-117.184;2022-07-29T00:53:13;98817.18;;;28.93;22.64
47592;BME280;33317;33.356;-117.184;2022-07-29T00:55:41;98818.91;;;28.60;22.61
47592;BME280;33317;33.356;-117.184;2022-07-29T00:58:12;98812.72;;;28.56;22.74
47592;BME280;33317;33.356;-117.184;2022-07-29T01:00:41;98817.04;;;28.27;22.82
47592;BME280;33317;33.356;-117.184;2022-07-29T01:03:09;98816.15;;;28.17;22.88
47592;BME280;33317;33.356;-117.184;2022-07-29T01:05:38;98817.74;;;28.24;22.78
47592;BME280;33317;33.356;-117.184;2022-07-29T01:08:10;98820.22;;;28.27;22.61
47592;BME280;33317;33.356;-117.184;2022-07-29T01:10:40;98820.41;;;28.07;22.93
47592;BME280;33317;33.356;-117.184;2022-07-29T01:13:10;98822.92;;;27.81;22.97
47592;BME280;33317;33.356;-117.184;2022-07-29T01:15:44;98825.94;;;28.36;22.89
47592;BME280;33317;33.356;-117.184;2022-07-29T01:18:20;98827.96;;;27.91;22.91
47592;BME280;33317;33.356;-117.184;2022-07-29T01:21:06;98832.80;;;28.11;22.74
47592;BME280;33317;33.356;-117.184;2022-07-29T01:23:58;98835.08;;;28.14;22.94
47592;BME280;33317;33.356;-117.184;2022-07-29T01:26:42;98839.98;;;28.32;23.04
47592;BME280;33317;33.356;-117.184;2022-07-29T01:29:17;98841.54;;;28.83;22.70
47592;BME280;33317;33.356;-117.184;2022-07-29T01:31:56;98844.25;;;29.09;22.76
47592;BME280;33317;33.356;-117.184;2022-07-29T01:34:31;98840.35;;;28.90;22.91
47592;BME280;33317;33.356;-117.184;2022-07-29T01:39:56;98841.47;;;28.14;23.50
47592;BME280;33317;33.356;-117.184;2022-07-29T01:42:30;98843.52;;;27.80;23.51
47592;BME280;33317;33.356;-117.184;2022-07-29T01:45:04;98844.43;;;27.28;23.97
47592;BME280;33317;33.356;-117.184;2022-07-29T01:47:42;98846.88;;;27.57;24.21
47592;BME280;33317;33.356;-117.184;2022-07-29T01:50:22;98849.81;;;27.87;23.62
47592;BME280;33317;33.356;-117.184;2022-07-29T01:52:59;98852.25;;;28.29;23.06
47592;BME280;33317;33.356;-117.184;2022-07-29T01:55:38;98850.68;;;28.53;23.12
47592;BME280;33317;33.356;-117.184;2022-07-29T01:58:13;98857.64;;;28.50;22.94
47592;BME280;33317;33.356;-117.184;2022-07-29T02:00:46;98858.68;;;28.37;22.99
47592;BME280;33317;33.356;-117.184;2022-07-29T02:03:22;98859.13;;;28.17;23.15
47592;BME280;33317;33.356;-117.184;2022-07-29T02:05:54;98859.39;;;28.19;23.09
47592;BME280;33317;33.356;-117.184;2022-07-29T02:08:26;98860.79;;;28.23;23.11
47592;BME280;33317;33.356;-117.184;2022-07-29T02:10:57;98865.30;;;28.33;23.20
47592;BME280;33317;33.356;-117.184;2022-07-29T02:13:28;98867.16;;;28.10;23.66
47592;BME280;33317;33.356;-117.184;2022-07-29T02:15:59;98875.62;;;28.46;23.90
47592;BME280;33317;33.356;-117.184;2022-07-29T02:18:29;98878.77;;;27.71;24.85
47592;BME280;33317;33.356;-117.184;2022-07-29T02:21:00;98884.25;;;27.55;24.81
47592;BME280;33317;33.356;-117.184;2022-07-29T02:23:31;98878.13;;;26.54;25.62
47592;BME280;33317;33.356;-117.184;2022-07-29T02:26:00;98881.55;;;27.45;24.45
47592;BME280;33317;33.356;-117.184;2022-07-29T02:28:30;98881.95;;;27.83;23.91
47592;BME280;33317;33.356;-117.184;2022-07-29T02:31:03;98882.90;;;27.99;24.06
47592;BME280;33317;33.356;-117.184;2022-07-29T02:33:38;98885.99;;;28.52;23.75
47592;BME280;33317;33.356;-117.184;2022-07-29T02:36:09;98891.14;;;28.49;23.75
47592;BME280;33317;33.356;-117.184;2022-07-29T02:38:39;98894.99;;;28.56;23.43
47592;BME280;33317;33.356;-117.184;2022-07-29T02:41:15;98891.29;;;28.57;23.39
47592;BME280;33317;33.356;-117.184;2022-07-29T02:43:50;98897.24;;;28.74;23.38
47592;BME280;33317;33.356;-117.184;2022-07-29T02:46:29;98904.69;;;28.37;23.39
47592;BME280;33317;33.356;-117.184;2022-07-29T02:49:04;98913.16;;;28.26;23.80
47592;BME280;33317;33.356;-117.184;2022-07-29T02:51:42;98919.53;;;28.82;23.57
47592;BME280;33317;33.356;-117.184;2022-07-29T02:54:19;98926.37;;;28.85;23.51
47592;BME280;33317;33.356;-117.184;2022-07-29T02:56:49;98924.94;;;28.93;23.39
47592;BME280;33317;33.356;-117.184;2022-07-29T02:59:25;98922.59;;;28.55;23.51
47592;BME280;33317;33.356;-117.184;2022-07-29T03:01:57;98926.91;;;28.52;23.66
47592;BME280;33317;33.356;-117.184;2022-07-29T03:04:27;98927.55;;;28.36;23.37
47592;BME280;33317;33.356;-117.184;2022-07-29T03:07:00;98930.49;;;27.99;23.17
47592;BME280;33317;33.356;-117.184;2022-07-29T03:09:30;98936.07;;;28.08;23.52
47592;BME280;33317;33.356;-117.184;2022-07-29T03:11:59;98938.96;;;28.36;23.39
47592;BME280;33317;33.356;-117.184;2022-07-29T03:14:34;98944.77;;;28.44;23.34
47592;BME280;33317;33.356;-117.184;2022-07-29T03:17:04;98949.24;;;28.50;23.26
47592;BME280;33317;33.356;-117.184;2022-07-29T03:19:37;98953.29;;;28.21;23.29
47592;BME280;33317;33.356;-117.184;2022-07-29T03:22:06;98952.72;;;28.17;23.25
47592;BME280;33317;33.356;-117.184;2022-07-29T03:24:42;98954.87;;;28.07;23.30
47592;BME280;33317;33.356;-117.184;2022-07-29T03:27:16;98958.92;;;27.99;23.30
47592;BME280;33317;33.356;-117.184;2022-07-29T03:29:46;98960.88;;;28.17;23.63
47592;BME280;33317;33.356;-117.184;2022-07-29T03:32:15;98959.54;;;28.27;23.36
47592;BME280;33317;33.356;-117.184;2022-07-29T03:34:44;98961.53;;;28.31;23.27
47592;BME280;33317;33.356;-117.184;2022-07-29T03:37:13;98969.49;;;28.85;23.20
47592;BME280;33317;33.356;-117.184;2022-07-29T03:39:42;98975.92;;;28.57;23.18
47592;BME280;33317;33.356;-117.184;2022-07-29T03:42:19;98973.14;;;28.41;23.16
47592;BME280;33317;33.356;-117.184;2022-07-29T03:44:57;98974.41;;;28.39;23.23
47592;BME280;33317;33.356;-117.184;2022-07-29T03:47:28;98981.20;;;27.92;23.15
47592;BME280;33317;33.356;-117.184;2022-07-29T03:50:02;98982.77;;;28.09;23.39
47592;BME280;33317;33.356;-117.184;2022-07-29T03:52:36;98985.26;;;28.40;23.12
47592;BME280;33317;33.356;-117.184;2022-07-29T03:55:08;98985.66;;;28.40;23.20
47592;BME280;33317;33.356;-117.184;2022-07-29T03:57:44;98990.87;;;28.74;23.01
47592;BME280;33317;33.356;-117.184;2022-07-29T04:00:14;98992.25;;;28.44;22.98
47592;BME280;33317;33.356;-117.184;2022-07-29T04:02:49;98993.00;;;28.02;22.98
47592;BME280;33317;33.356;-117.184;2022-07-29T04:05:21;98997.25;;;27.84;23.01
47592;BME280;33317;33.356;-117.184;2022-07-29T04:07:57;99000.65;;;28.09;23.23
47592;BME280;33317;33.356;-117.184;2022-07-29T04:10:26;99010.87;;;28.08;23.28
47592;BME280;33317;33.356;-117.184;2022-07-29T04:12:59;99013.72;;;28.14;23.47
47592;BME280;33317;33.356;-117.184;2022-07-29T04:15:28;99009.88;;;28.22;23.23
47592;BME280;33317;33.356;-117.184;2022-07-29T04:18:01;99009.45;;;28.22;23.37
47592;BME280;33317;33.356;-117.184;2022-07-29T04:20:32;99006.70;;;28.28;23.21
47592;BME280;33317;33.356;-117.184;2022-07-29T04:23:00;99010.76;;;27.98;23.21
47592;BME280;33317;33.356;-117.184;2022-07-29T04:25:29;99020.76;;;28.06;23.22
47592;BME280;33317;33.356;-117.184;2022-07-29T04:27:58;99029.10;;;28.15;23.24
47592;BME280;33317;33.356;-117.184;2022-07-29T04:30:28;99037.04;;;28.09;23.57
47592;BME280;33317;33.356;-117.184;2022-07-29T04:32:56;99040.71;;;28.11;23.32
47592;BME280;33317;33.356;-117.184;2022-07-29T04:35:25;99040.05;;;28.29;23.12
47592;BME280;33317;33.356;-117.184;2022-07-29T04:37:54;99038.39;;;28.42;23.34
47592;BME280;33317;33.356;-117.184;2022-07-29T04:40:30;99039.34;;;28.25;23.08
47592;BME280;33317;33.356;-117.184;2022-07-29T04:43:00;99040.97;;;27.92;22.93
47592;BME280;33317;33.356;-117.184;2022-07-29T04:45:43;99045.15;;;28.26;23.01
47592;BME280;33317;33.356;-117.184;2022-07-29T04:48:12;99041.73;;;27.74;23.40
47592;BME280;33317;33.356;-117.184;2022-07-29T04:50:46;99039.50;;;28.28;23.34
47592;BME280;33317;33.356;-117.184;2022-07-29T04:53:15;99039.03;;;28.00;23.37
47592;BME280;33317;33.356;-117.184;2022-07-29T04:55:45;99040.91;;;28.28;23.25
47592;BME280;33317;33.356;-117.184;2022-07-29T04:58:13;99038.89;;;28.22;23.17
47592;BME280;33317;33.356;-117.184;2022-07-29T05:00:42;99041.75;;;27.98;23.23
47592;BME280;33317;33.356;-117.184;2022-07-29T05:03:11;99047.25;;;28.09;23.62
47592;BME280;33317;33.356;-117.184;2022-07-29T05:05:39;99047.59;;;28.05;23.65
47592;BME280;33317;33.356;-117.184;2022-07-29T05:08:09;99050.38;;;28.44;23.60
47592;BME280;33317;33.356;-117.184;2022-07-29T05:10:37;99055.28;;;28.28;23.66
47592;BME280;33317;33.356;-117.184;2022-07-29T05:13:14;99049.19;;;28.35;23.65
47592;BME280;33317;33.356;-117.184;2022-07-29T05:15:43;99042.54;;;28.43;23.64
47592;BME280;33317;33.356;-117.184;2022-07-29T05:18:13;99036.55;;;28.48;23.61
47592;BME280;33317;33.356;-117.184;2022-07-29T05:20:42;99030.93;;;28.31;23.56
47592;BME280;33317;33.356;-117.184;2022-07-29T05:23:13;99021.95;;;28.55;23.71
47592;BME280;33317;33.356;-117.184;2022-07-29T05:25:47;99014.24;;;28.60;23.78
47592;BME280;33317;33.356;-117.184;2022-07-29T05:28:21;99011.67;;;28.63;23.79
47592;BME280;33317;33.356;-117.184;2022-07-29T05:30:49;99019.02;;;28.66;23.80
47592;BME280;33317;33.356;-117.184;2022-07-29T05:33:17;99036.32;;;28.66;23.85
47592;BME280;33317;33.356;-117.184;2022-07-29T05:35:46;99045.70;;;28.69;23.90
47592;BME280;33317;33.356;-117.184;2022-07-29T05:38:14;99042.26;;;28.71;23.95
47592;BME280;33317;33.356;-117.184;2022-07-29T05:40:42;99036.44;;;28.49;24.00
47592;BME280;33317;33.356;-117.184;2022-07-29T05:43:11;99040.39;;;28.72;24.07
47592;BME280;33317;33.356;-117.184;2022-07-29T05:45:40;99046.82;;;28.73;24.04
47592;BME280;33317;33.356;-117.184;2022-07-29T05:48:08;99052.96;;;28.50;24.13
47592;BME280;33317;33.356;-117.184;2022-07-29T05:50:37;99055.71;;;28.73;24.20
47592;BME280;33317;33.356;-117.184;2022-07-29T05:53:06;99056.13;;;28.73;24.37
47592;BME280;33317;33.356;-117.184;2022-07-29T05:55:34;99056.17;;;28.75;24.25
47592;BME280;33317;33.356;-117.184;2022-07-29T05:58:04;99053.69;;;28.76;24.35
47592;BME280;33317;33.356;-117.184;2022-07-29T06:00:32;99047.33;;;28.76;24.33
47592;BME280;33317;33.356;-117.184;2022-07-29T06:03:00;99037.63;;;28.72;24.41
47592;BME280;33317;33.356;-117.184;2022-07-29T06:05:29;99031.54;;;28.72;24.60
47592;BME280;33317;33.356;-117.184;2022-07-29T06:07:57;99034.11;;;28.71;24.60
47592;BME280;33317;33.356;-117.184;2022-07-29T06:10:25;99030.65;;;28.70;24.61
47592;BME280;33317;33.356;-117.184;2022-07-29T06:12:54;99029.08;;;28.47;24.58
47592;BME280;33317;33.356;-117.184;2022-07-29T06:15:22;99030.39;;;28.47;24.68
47592;BME280;33317;33.356;-117.184;2022-07-29T06:17:51;99030.94;;;28.66;24.68
47592;BME280;33317;33.356;-117.184;2022-07-29T06:20:20;99026.19;;;28.65;24.82
47592;BME280;33317;33.356;-117.184;2022-07-29T06:22:49;99023.94;;;28.65;24.85
47592;BME280;33317;33.356;-117.184;2022-07-29T06:25:17;99016.84;;;28.62;24.75
47592;BME280;33317;33.356;-117.184;2022-07-29T06:27:46;99015.93;;;28.59;24.82
47592;BME280;33317;33.356;-117.184;2022-07-29T06:30:14;99017.88;;;28.60;24.85
47592;BME280;33317;33.356;-117.184;2022-07-29T06:32:42;99011.49;;;28.60;24.93
47592;BME280;33317;33.356;-117.184;2022-07-29T06:35:11;99014.40;;;28.59;24.93
47592;BME280;33317;33.356;-117.184;2022-07-29T06:37:39;99013.91;;;28.54;24.96
47592;BME280;33317;33.356;-117.184;2022-07-29T06:40:09;99009.54;;;28.34;25.02
47592;BME280;33317;33.356;-117.184;2022-07-29T06:42:41;99002.87;;;28.55;25.01
47592;BME280;33317;33.356;-117.184;2022-07-29T06:45:11;99002.77;;;28.81;25.03
47592;BME280;33317;33.356;-117.184;2022-07-29T06:47:39;99009.98;;;28.77;25.01
47592;BME280;33317;33.356;-117.184;2022-07-29T06:50:08;99010.14;;;28.48;25.18
47592;BME280;33317;33.356;-117.184;2022-07-29T06:52:37;99005.45;;;28.50;25.16
47592;BME280;33317;33.356;-117.184;2022-07-29T06:55:06;99010.58;;;28.50;25.21
47592;BME280;33317;33.356;-117.184;2022-07-29T06:57:35;99020.30;;;28.48;25.24
47592;BME280;33317;33.356;-117.184;2022-07-29T07:00:06;99024.42;;;28.46;25.34
47592;BME280;33317;33.356;-117.184;2022-07-29T07:02:35;99022.15;;;28.52;25.31
47592;BME280;33317;33.356;-117.184;2022-07-29T07:05:04;99019.30;;;28.26;25.32
47592;BME280;33317;33.356;-117.184;2022-07-29T07:07:32;99014.75;;;28.47;25.45
47592;BME280;33317;33.356;-117.184;2022-07-29T07:10:01;99010.67;;;28.43;25.53
47592;BME280;33317;33.356;-117.184;2022-07-29T07:12:30;99005.20;;;28.41;25.49
47592;BME280;33317;33.356;-117.184;2022-07-29T07:14:58;99012.23;;;28.40;25.53
47592;BME280;33317;33.356;-117.184;2022-07-29T07:17:26;99018.72;;;28.36;25.61
47592;BME280;33317;33.356;-117.184;2022-07-29T07:19:55;99022.05;;;28.36;25.62
47592;BME280;33317;33.356;-117.184;2022-07-29T07:22:23;99022.86;;;28.62;25.64
47592;BME280;33317;33.356;-117.184;2022-07-29T07:24:51;99019.45;;;28.36;25.61
47592;BME280;33317;33.356;-117.184;2022-07-29T07:27:20;99017.69;;;28.36;25.66
47592;BME280;33317;33.356;-117.184;2022-07-29T07:29:48;99013.18;;;28.33;25.68
47592;BME280;33317;33.356;-117.184;2022-07-29T07:32:17;99007.79;;;28.30;25.75
47592;BME280;33317;33.356;-117.184;2022-07-29T07:34:45;98995.30;;;28.31;25.78
47592;BME280;33317;33.356;-117.184;2022-07-29T07:37:14;98987.89;;;28.57;25.77
47592;BME280;33317;33.356;-117.184;2022-07-29T07:39:42;98994.20;;;28.30;25.76
47592;BME280;33317;33.356;-117.184;2022-07-29T07:42:10;98998.74;;;28.30;25.81
47592;BME280;33317;33.356;-117.184;2022-07-29T07:44:39;98999.95;;;28.30;25.85
47592;BME280;33317;33.356;-117.184;2022-07-29T07:47:07;99001.59;;;28.28;25.84
47592;BME280;33317;33.356;-117.184;2022-07-29T07:49:36;99004.51;;;28.52;25.92
47592;BME280;33317;33.356;-117.184;2022-07-29T07:52:04;99006.40;;;28.24;25.92
47592;BME280;33317;33.356;-117.184;2022-07-29T07:54:33;99003.16;;;28.24;25.98
47592;BME280;33317;33.356;-117.184;2022-07-29T07:57:01;98999.92;;;28.46;26.08
47592;BME280;33317;33.356;-117.184;2022-07-29T07:59:29;99003.57;;;28.19;26.21
47592;BME280;33317;33.356;-117.184;2022-07-29T08:01:58;99005.83;;;28.15;26.13
47592;BME280;33317;33.356;-117.184;2022-07-29T08:04:26;99011.41;;;28.09;26.22
47592;BME280;33317;33.356;-117.184;2022-07-29T08:06:55;99018.57;;;28.09;26.29
47592;BME280;33317;33.356;-117.184;2022-07-29T08:09:25;99014.32;;;28.02;26.29
47592;BME280;33317;33.356;-117.184;2022-07-29T08:11:54;99013.39;;;27.96;26.36
47592;BME280;33317;33.356;-117.184;2022-07-29T08:14:23;99012.17;;;28.43;26.42
47592;BME280;33317;33.356;-117.184;2022-07-29T08:16:52;99007.92;;;27.92;26.50
47592;BME280;33317;33.356;-117.184;2022-07-29T08:19:20;99004.52;;;27.90;26.50
47592;BME280;33317;33.356;-117.184;2022-07-29T08:21:48;99003.25;;;28.14;26.53
47592;BME280;33317;33.356;-117.184;2022-07-29T08:24:17;99005.26;;;28.14;26.59
47592;BME280;33317;33.356;-117.184;2022-07-29T08:26:45;98998.38;;;28.10;26.53
47592;BME280;33317;33.356;-117.184;2022-07-29T08:29:14;98985.79;;;28.07;26.58
47592;BME280;33317;33.356;-117.184;2022-07-29T08:31:42;98979.41;;;27.77;26.63
47592;BME280;33317;33.356;-117.184;2022-07-29T08:34:11;98976.98;;;27.76;26.69
47592;BME280;33317;33.356;-117.184;2022-07-29T08:36:39;98978.98;;;28.05;26.71
47592;BME280;33317;33.356;-117.184;2022-07-29T08:39:07;98980.34;;;28.04;26.65
47592;BME280;33317;33.356;-117.184;2022-07-29T08:41:36;98981.66;;;28.07;26.62
47592;BME280;33317;33.356;-117.184;2022-07-29T08:44:04;98976.78;;;28.08;26.77
47592;BME280;33317;33.356;-117.184;2022-07-29T08:46:32;98972.75;;;28.07;26.62
47592;BME280;33317;33.356;-117.184;2022-07-29T08:49:02;98968.73;;;28.05;26.72
47592;BME280;33317;33.356;-117.184;2022-07-29T08:51:31;98963.08;;;28.24;26.61
47592;BME280;33317;33.356;-117.184;2022-07-29T08:54:02;98960.67;;;27.74;26.77
47592;BME280;33317;33.356;-117.184;2022-07-29T08:56:31;98954.05;;;27.99;26.80
47592;BME280;33317;33.356;-117.184;2022-07-29T08:59:03;98944.57;;;27.97;26.84
47592;BME280;33317;33.356;-117.184;2022-07-29T09:01:33;98934.66;;;28.14;26.94
47592;BME280;33317;33.356;-117.184;2022-07-29T09:04:08;98926.78;;;27.88;26.90
47592;BME280;33317;33.356;-117.184;2022-07-29T09:06:42;98934.39;;;27.84;27.08
47592;BME280;33317;33.356;-117.184;2022-07-29T09:09:11;98942.65;;;27.61;27.02
47592;BME280;33317;33.356;-117.184;2022-07-29T09:11:40;98945.84;;;27.61;27.11
47592;BME280;33317;33.356;-117.184;2022-07-29T09:14:11;98941.86;;;28.11;27.02
47592;BME280;33317;33.356;-117.184;2022-07-29T09:16:47;98938.80;;;28.13;27.06
47592;BME280;33317;33.356;-117.184;2022-07-29T09:19:25;98937.70;;;27.87;27.19
47592;BME280;33317;33.356;-117.184;2022-07-29T09:21:54;98951.11;;;27.82;27.20
47592;BME280;33317;33.356;-117.184;2022-07-29T09:24:23;98962.58;;;28.02;27.17
47592;BME280;33317;33.356;-117.184;2022-07-29T09:26:52;98951.95;;;27.97;27.34
47592;BME280;33317;33.356;-117.184;2022-07-29T09:29:22;98934.13;;;27.72;27.39
47592;BME280;33317;33.356;-117.184;2022-07-29T09:31:53;98923.03;;;27.72;27.31
47592;BME280;33317;33.356;-117.184;2022-07-29T09:34:24;98928.81;;;27.50;27.25
47592;BME280;33317;33.356;-117.184;2022-07-29T09:36:54;98939.80;;;27.96;27.10
47592;BME280;33317;33.356;-117.184;2022-07-29T09:39:29;98945.35;;;27.72;27.24
47592;BME280;33317;33.356;-117.184;2022-07-29T09:41:59;98940.19;;;27.69;27.22
47592;BME280;33317;33.356;-117.184;2022-07-29T09:44:27;98936.95;;;27.93;27.23
47592;BME280;33317;33.356;-117.184;2022-07-29T09:47:08;98932.69;;;27.72;27.13
47592;BME280;33317;33.356;-117.184;2022-07-29T09:49:51;98921.52;;;27.70;27.35
47592;BME280;33317;33.356;-117.184;2022-07-29T09:52:20;98910.54;;;27.91;27.22
47592;BME280;33317;33.356;-117.184;2022-07-29T09:54:48;98900.32;;;27.90;27.38
47592;BME280;33317;33.356;-117.184;2022-07-29T09:57:26;98896.59;;;27.68;27.38
47592;BME280;33317;33.356;-117.184;2022-07-29T09:59:59;98898.01;;;27.95;27.38
47592;BME280;33317;33.356;-117.184;2022-07-29T10:02:31;98901.50;;;27.38;27.56
47592;BME280;33317;33.356;-117.184;2022-07-29T10:05:00;98907.77;;;27.77;27.58
47592;BME280;33317;33.356;-117.184;2022-07-29T10:07:44;98906.80;;;27.70;27.70
47592;BME280;33317;33.356;-117.184;2022-07-29T10:10:20;98903.30;;;27.47;27.78
47592;BME280;33317;33.356;-117.184;2022-07-29T10:12:52;98903.05;;;27.40;27.84
47592;BME280;33317;33.356;-117.184;2022-07-29T10:15:22;98915.29;;;27.55;27.94
47592;BME280;33317;33.356;-117.184;2022-07-29T10:17:51;98917.84;;;27.57;27.86
47592;BME280;33317;33.356;-117.184;2022-07-29T10:20:21;98909.38;;;27.59;27.86
47592;BME280;33317;33.356;-117.184;2022-07-29T10:22:52;98906.98;;;27.52;28.02
47592;BME280;33317;33.356;-117.184;2022-07-29T10:25:21;98918.46;;;27.48;27.94
47592;BME280;33317;33.356;-117.184;2022-07-29T10:27:51;98934.29;;;27.52;28.06
47592;BME280;33317;33.356;-117.184;2022-07-29T10:30:22;98937.56;;;27.56;27.97
47592;BME280;33317;33.356;-117.184;2022-07-29T10:33:08;98931.89;;;27.63;27.97
47592;BME280;33317;33.356;-117.184;2022-07-29T10:36:10;98927.94;;;27.50;27.76
47592;BME280;33317;33.356;-117.184;2022-07-29T10:38:52;98937.78;;;27.81;27.62
47592;BME280;33317;33.356;-117.184;2022-07-29T10:41:39;98952.02;;;27.82;27.60
47592;BME280;33317;33.356;-117.184;2022-07-29T10:44:16;98954.42;;;27.80;27.61
47592;BME280;33317;33.356;-117.184;2022-07-29T10:46:45;98959.96;;;27.74;27.69
47592;BME280;33317;33.356;-117.184;2022-07-29T10:49:15;98965.60;;;27.76;27.62
47592;BME280;33317;33.356;-117.184;2022-07-29T10:52:04;98966.82;;;27.50;27.67
47592;BME280;33317;33.356;-117.184;2022-07-29T10:54:50;98967.46;;;27.68;27.83
47592;BME280;33317;33.356;-117.184;2022-07-29T10:57:24;98970.70;;;27.64;28.01
47592;BME280;33317;33.356;-117.184;2022-07-29T11:00:27;98967.36;;;27.63;27.98
47592;BME280;33317;33.356;-117.184;2022-07-29T11:02:56;98967.78;;;27.34;27.94
47592;BME280;33317;33.356;-117.184;2022-07-29T11:05:24;98966.40;;;27.53;28.06
47592;BME280;33317;33.356;-117.184;2022-07-29T11:08:25;98957.36;;;27.42;28.19
47592;BME280;33317;33.356;-117.184;2022-07-29T11:11:31;98946.72;;;27.16;28.22
47592;BME280;33317;33.356;-117.184;2022-07-29T11:13:59;98945.87;;;27.34;28.24
47592;BME280;33317;33.356;-117.184;2022-07-29T11:16:59;98938.56;;;27.24;28.47
47592;BME280;33317;33.356;-117.184;2022-07-29T11:19:28;98930.44;;;27.26;28.36
47592;BME280;33317;33.356;-117.184;2022-07-29T11:21:57;98932.87;;;27.30;28.32
47592;BME280;33317;33.356;-117.184;2022-07-29T11:24:28;98931.25;;;27.37;28.19
47592;BME280;33317;33.356;-117.184;2022-07-29T11:27:15;98933.88;;;27.39;28.31
47592;BME280;33317;33.356;-117.184;2022-07-29T11:29:53;98940.39;;;27.49;28.18
47592;BME280;33317;33.356;-117.184;2022-07-29T11:32:23;98946.09;;;27.53;28.08
47592;BME280;33317;33.356;-117.184;2022-07-29T11:35:14;98947.99;;;27.58;28.13
47592;BME280;33317;33.356;-117.184;2022-07-29T11:37:43;98940.07;;;27.42;27.99
47592;BME280;33317;33.356;-117.184;2022-07-29T11:40:15;98932.06;;;27.68;27.87
47592;BME280;33317;33.356;-117.184;2022-07-29T11:42:47;98934.45;;;27.52;27.86
47592;BME280;33317;33.356;-117.184;2022-07-29T11:45:18;98939.71;;;27.59;27.74
47592;BME280;33317;33.356;-117.184;2022-07-29T11:47:51;98942.78;;;27.83;27.82
47592;BME280;33317;33.356;-117.184;2022-07-29T11:50:31;98937.66;;;27.86;27.86
47592;BME280;33317;33.356;-117.184;2022-07-29T11:53:00;98934.58;;;27.87;27.68
47592;BME280;33317;33.356;-117.184;2022-07-29T11:55:29;98935.35;;;27.82;27.90
47592;BME280;33317;33.356;-117.184;2022-07-29T11:57:59;98932.77;;;27.79;27.92
47592;BME280;33317;33.356;-117.184;2022-07-29T12:00:30;98926.08;;;27.51;27.88
47592;BME280;33317;33.356;-117.184;2022-07-29T12:03:02;98918.88;;;27.76;27.93
47592;BME280;33317;33.356;-117.184;2022-07-29T12:05:34;98915.93;;;27.78;28.01
47592;BME280;33317;33.356;-117.184;2022-07-29T12:08:10;98914.47;;;27.85;27.74
47592;BME280;33317;33.356;-117.184;2022-07-29T12:10:40;98912.44;;;27.40;27.72
47592;BME280;33317;33.356;-117.184;2022-07-29T12:13:08;98913.31;;;27.91;27.69
47592;BME280;33317;33.356;-117.184;2022-07-29T12:15:37;98916.48;;;27.95;27.69
47592;BME280;33317;33.356;-117.184;2022-07-29T12:18:17;98918.01;;;27.71;27.79
47592;BME280;33317;33.356;-117.184;2022-07-29T12:20:47;98931.57;;;27.95;27.72
47592;BME280;33317;33.356;-117.184;2022-07-29T12:23:16;98947.22;;;27.75;27.73
47592;BME280;33317;33.356;-117.184;2022-07-29T12:25:44;98952.61;;;27.49;27.75
47592;BME280;33317;33.356;-117.184;2022-07-29T12:28:14;98955.34;;;27.47;27.81
47592;BME280;33317;33.356;-117.184;2022-07-29T12:30:45;98964.06;;;27.77;27.79
47592;BME280;33317;33.356;-117.184;2022-07-29T12:33:17;98967.24;;;27.80;27.65
47592;BME280;33317;33.356;-117.184;2022-07-29T12:35:47;98961.94;;;28.04;27.77
47592;BME280;33317;33.356;-117.184;2022-07-29T12:38:17;98959.27;;;28.04;27.70
47592;BME280;33317;33.356;-117.184;2022-07-29T12:40:46;98963.70;;;27.79;27.66
47592;BME280;33317;33.356;-117.184;2022-07-29T12:43:17;98966.00;;;27.82;27.62
47592;BME280;33317;33.356;-117.184;2022-07-29T12:45:48;98966.39;;;27.82;27.65
47592;BME280;33317;33.356;-117.184;2022-07-29T12:48:18;98958.11;;;28.05;27.66
47592;BME280;33317;33.356;-117.184;2022-07-29T12:51:02;98962.21;;;27.82;27.64
47592;BME280;33317;33.356;-117.184;2022-07-29T12:53:31;98963.44;;;27.53;27.64
47592;BME280;33317;33.356;-117.184;2022-07-29T12:56:00;98966.20;;;27.53;27.66